Time;durP1;ratioP1;P1;durP2;ratioP2;P2;SDS_P1;SDS_P2;PMS_P1;PMS_P2;Temp;Humidity;BMP_temperature;BMP_pressure;BME280_temperature;BME280_humidity;BME280_pressure;Samples;Min_cycle;Max_cycle;Signal;HPM_P1;HPM_P2
2023/05/18 00:00:40;;;;;;;16.65;3.55;;;;;;;12.23;60.88;101987.94;5013842;28;20060;-67
2023/05/18 00:03:07;;;;;;;9.13;3.60;;;;;;;12.16;61.20;102004.03;4996599;28;20061;-67
2023/05/18 00:05:35;;;;;;;10.10;3.42;;;;;;;12.28;61.14;101987.88;5029402;28;20050;-67
2023/05/18 00:08:03;;;;;;;11.55;3.35;;;;;;;12.40;60.67;101985.50;5013599;28;20053;-66
2023/05/18 00:10:30;;;;;;;8.82;3.40;;;;;;;12.31;60.59;101977.06;5013745;28;20062;-67
2023/05/18 00:12:57;;;;;;;11.05;3.13;;;;;;;12.23;61.06;101980.47;5013451;28;20069;-66
2023/05/18 00:15:25;;;;;;;9.63;3.08;;;;;;;12.06;61.82;101988.41;5013603;28;20669;-66
2023/05/18 00:17:52;;;;;;;8.60;3.08;;;;;;;12.13;61.55;101979.78;5013105;28;20046;-67
2023/05/18 00:20:20;;;;;;;12.25;3.22;;;;;;;12.15;61.17;101983.88;5013964;28;20061;-67
2023/05/18 00:22:49;;;;;;;9.77;3.30;;;;;;;12.28;61.11;101974.06;5013757;28;20094;-67
2023/05/18 00:25:16;;;;;;;15.73;3.13;;;;;;;12.28;60.57;101980.41;5012960;28;20042;-67
2023/05/18 00:27:44;;;;;;;8.25;2.85;;;;;;;12.05;61.08;101974.88;5013312;28;20050;-66
2023/05/18 00:30:12;;;;;;;13.48;3.50;;;;;;;11.89;61.96;101979.72;4995372;28;20072;-67
2023/05/18 00:32:39;;;;;;;9.07;2.90;;;;;;;12.00;61.57;101974.94;5012819;28;20060;-68
2023/05/18 00:35:07;;;;;;;12.80;2.92;;;;;;;11.99;61.56;101982.41;5012115;28;20038;-68
2023/05/18 00:37:34;;;;;;;11.57;3.72;;;;;;;11.82;62.26;101979.25;5013678;28;20057;-68
2023/05/18 00:40:05;;;;;;;10.77;3.15;;;;;;;11.81;62.46;101971.25;5013298;28;20068;-68
2023/05/18 00:42:32;;;;;;;9.57;3.42;;;;;;;12.08;61.85;101977.06;4995689;28;20057;-68
2023/05/18 00:45:00;;;;;;;12.07;3.72;;;;;;;12.05;61.71;101977.63;5013483;28;20049;-67
2023/05/18 00:47:27;;;;;;;13.68;3.53;;;;;;;12.04;61.80;101971.31;5013026;28;20054;-67
2023/05/18 00:49:54;;;;;;;14.38;3.60;;;;;;;12.02;61.93;101979.06;5013558;28;20060;-67
2023/05/18 00:52:22;;;;;;;9.70;3.33;;;;;;;12.13;61.79;101972.28;5028127;28;20756;-67
2023/05/18 00:54:50;;;;;;;12.15;2.95;;;;;;;12.03;62.09;101985.41;5000696;28;20049;-67
2023/05/18 00:57:18;;;;;;;14.90;3.45;;;;;;;11.92;62.80;101975.56;4995195;28;20417;-67
2023/05/18 00:59:46;;;;;;;15.15;3.85;;;;;;;11.71;63.36;101974.13;4995969;28;20049;-67
2023/05/18 01:02:14;;;;;;;17.38;3.90;;;;;;;11.74;63.39;101979.88;4996675;28;20815;-66
2023/05/18 01:04:42;;;;;;;14.85;3.53;;;;;;;12.01;62.80;101982.91;5000060;28;20490;-67
2023/05/18 01:07:09;;;;;;;13.13;3.30;;;;;;;11.94;62.59;101985.19;5014037;28;20054;-67
2023/05/18 01:09:37;;;;;;;14.55;3.53;;;;;;;11.90;62.71;101983.31;4999762;28;20058;-67
2023/05/18 01:12:22;;;;;;;11.65;3.25;;;;;;;11.70;63.40;101970.53;5015568;28;20041;-67
2023/05/18 01:15:03;;;;;;;17.92;4.47;;;;;;;11.96;62.85;101980.22;4997407;28;20065;-67
2023/05/18 01:18:09;;;;;;;16.05;3.60;;;;;;;11.70;63.57;101973.28;4999572;28;20053;-67
2023/05/18 01:21:03;;;;;;;17.05;3.88;;;;;;;11.80;63.49;101972.38;4999668;28;20049;-68
2023/05/18 01:23:46;;;;;;;7.45;3.03;;;;;;;11.87;63.08;101972.88;4999473;28;20065;-68
2023/05/18 01:26:15;;;;;;;11.05;3.30;;;;;;;11.69;63.41;101970.81;5016727;28;20046;-67
2023/05/18 01:28:45;;;;;;;11.40;3.30;;;;;;;11.79;63.80;101977.06;5000229;28;20053;-68
2023/05/18 01:31:14;;;;;;;16.02;3.65;;;;;;;11.55;64.31;101969.81;5000025;28;20050;-67
2023/05/18 01:33:43;;;;;;;11.20;3.15;;;;;;;11.41;65.12;101971.59;5003882;28;20076;-68
2023/05/18 01:36:10;;;;;;;13.82;3.92;;;;;;;11.44;64.81;101980.13;5015849;28;20056;-68
2023/05/18 01:38:38;;;;;;;10.05;3.60;;;;;;;11.50;64.77;101973.47;5032193;28;20493;-68
2023/05/18 01:41:17;;;;;;;16.83;3.90;;;;;;;11.66;64.37;101976.94;5016883;28;20053;-67
2023/05/18 01:44:00;;;;;;;15.13;3.83;;;;;;;11.38;64.87;101991.50;5015360;28;20072;-68
2023/05/18 01:46:35;;;;;;;11.38;3.60;;;;;;;11.10;66.00;101974.59;4996018;28;20046;-67
2023/05/18 01:49:13;;;;;;;15.30;3.92;;;;;;;11.30;65.39;101985.47;5003041;28;20445;-67
2023/05/18 01:51:44;;;;;;;17.50;3.33;;;;;;;11.37;65.16;101989.84;4999485;28;20042;-67
2023/05/18 01:54:15;;;;;;;11.88;3.63;;;;;;;11.35;65.60;101979.06;5031698;28;20050;-67
2023/05/18 01:56:45;;;;;;;11.20;3.88;;;;;;;11.30;66.11;101990.16;5016991;28;20046;-67
2023/05/18 01:59:13;;;;;;;11.38;4.20;;;;;;;11.20;66.49;101993.81;4999497;28;20057;-62
2023/05/18 02:01:40;;;;;;;10.00;3.88;;;;;;;11.07;67.35;101985.38;5012371;28;20054;-64
2023/05/18 02:04:09;;;;;;;9.88;3.80;;;;;;;11.10;67.40;101984.78;4984479;28;20053;-64
2023/05/18 02:06:37;;;;;;;11.05;4.00;;;;;;;11.25;66.98;101982.75;5014954;28;20054;-67
2023/05/18 02:09:04;;;;;;;10.02;3.80;;;;;;;11.21;67.25;101992.69;5011770;28;20058;-64
2023/05/18 02:11:32;;;;;;;16.50;4.80;;;;;;;11.32;67.22;101987.94;5005630;28;20054;-64
2023/05/18 02:14:00;;;;;;;14.50;4.32;;;;;;;11.40;66.81;101984.59;4995405;28;20050;-62
2023/05/18 02:16:27;;;;;;;14.95;4.38;;;;;;;11.50;66.16;101987.25;5028063;28;20055;-64
2023/05/18 02:18:55;;;;;;;12.00;4.57;;;;;;;11.35;66.56;101984.59;4995622;28;20056;-63
2023/05/18 02:21:22;;;;;;;14.63;4.22;;;;;;;10.86;68.00;101989.38;4995288;28;20057;-63
2023/05/18 02:23:50;;;;;;;16.75;5.22;;;;;;;10.83;68.51;101981.63;4996748;28;20050;-64
2023/05/18 02:26:17;;;;;;;17.30;4.60;;;;;;;10.93;68.61;101984.38;4994876;28;20054;-64
2023/05/18 02:28:51;;;;;;;12.27;4.65;;;;;;;10.98;68.28;101987.09;4995343;28;20051;-64
2023/05/18 02:31:19;;;;;;;12.95;4.75;;;;;;;10.66;69.37;101982.03;5011420;28;20062;-63
2023/05/18 02:33:46;;;;;;;14.63;4.57;;;;;;;10.73;69.42;101992.72;4996244;28;20058;-64
2023/05/18 02:36:14;;;;;;;16.17;4.45;;;;;;;10.60;69.81;101985.91;4995890;28;20057;-64
2023/05/18 02:38:42;;;;;;;12.23;4.25;;;;;;;10.73;69.63;101995.47;4992165;28;20161;-64
2023/05/18 02:41:10;;;;;;;15.00;4.80;;;;;;;10.69;69.70;101986.97;5008450;28;20049;-64
2023/05/18 02:43:38;;;;;;;19.05;4.72;;;;;;;10.77;69.35;101997.41;4987680;28;20049;-63
2023/05/18 02:46:08;;;;;;;15.73;4.90;;;;;;;10.40;70.95;102001.69;4995896;28;20058;-65
2023/05/18 02:48:36;;;;;;;14.27;4.75;;;;;;;10.60;70.43;101996.91;4994714;28;20058;-64
2023/05/18 02:51:03;;;;;;;16.40;5.40;;;;;;;10.51;70.72;101992.28;5010536;28;20174;-64
2023/05/18 02:53:31;;;;;;;13.45;5.13;;;;;;;10.53;70.53;101995.59;4994490;28;20490;-65
2023/05/18 02:56:05;;;;;;;12.48;4.50;;;;;;;10.56;70.23;101987.59;4993848;28;20053;-64
2023/05/18 02:58:56;;;;;;;;;;;;;;;10.42;71.04;102000.31;4993883;28;20058;-68
2023/05/18 03:01:35;;;;;;;15.90;5.03;;;;;;;10.58;70.60;101987.31;4978897;28;19945;-68
2023/05/18 03:04:03;;;;;;;17.83;5.90;;;;;;;10.42;70.91;101996.72;4999063;28;20050;-68
2023/05/18 03:06:31;;;;;;;17.42;5.57;;;;;;;10.38;71.02;101995.63;5026317;28;20051;-67
2023/05/18 03:08:58;;;;;;;14.02;5.15;;;;;;;10.51;70.98;101992.28;5007707;28;20747;-68
2023/05/18 03:11:33;;;;;;;14.43;5.85;;;;;;;10.39;70.97;101991.78;5030803;28;20061;-67
2023/05/18 03:14:00;;;;;;;14.88;5.47;;;;;;;10.56;70.49;101981.25;4997407;28;20097;-68
2023/05/18 03:16:28;;;;;;;16.75;5.82;;;;;;;10.51;70.42;101982.09;4997786;28;20049;-67
2023/05/18 03:19:01;;;;;;;13.93;5.35;;;;;;;10.70;70.20;101983.13;5013821;28;20046;-67
2023/05/18 03:21:34;;;;;;;15.52;5.50;;;;;;;10.30;71.12;101997.06;4997774;28;20137;-69
2023/05/18 03:24:02;;;;;;;12.35;5.35;;;;;;;10.46;71.20;101981.28;5013736;28;20049;-67
2023/05/18 03:26:31;;;;;;;19.27;6.47;;;;;;;10.29;71.44;101989.88;5013492;28;20429;-67
2023/05/18 03:29:00;;;;;;;17.38;6.40;;;;;;;10.35;71.64;101988.78;4997531;28;20045;-69
2023/05/18 03:31:27;;;;;;;13.88;5.05;;;;;;;10.42;71.73;101978.28;5030299;28;20055;-68
2023/05/18 03:33:57;;;;;;;20.67;5.85;;;;;;;10.43;70.84;101974.41;5002225;28;20050;-66
2023/05/18 03:36:26;;;;;;;15.80;5.45;;;;;;;10.13;72.12;101980.00;5010273;28;20042;-67
2023/05/18 03:38:54;;;;;;;18.10;6.00;;;;;;;10.26;72.03;101979.44;4995590;28;20080;-67
2023/05/18 03:41:22;;;;;;;17.42;5.93;;;;;;;10.23;71.50;101981.94;5010213;28;20050;-68
2023/05/18 03:43:51;;;;;;;19.45;6.47;;;;;;;10.14;72.15;101984.44;5021742;28;20061;-66
2023/05/18 03:46:18;;;;;;;15.18;5.95;;;;;;;10.21;71.89;101976.72;4996430;28;20046;-67
2023/05/18 03:48:46;;;;;;;18.85;5.97;;;;;;;10.20;71.43;101975.88;4996530;28;20355;-68
2023/05/18 03:51:17;;;;;;;15.73;6.55;;;;;;;10.35;70.71;101991.53;4997745;28;20054;-67
2023/05/18 03:53:45;;;;;;;16.98;6.57;;;;;;;10.19;71.03;101988.00;4997144;28;20528;-68
2023/05/18 03:56:12;;;;;;;20.02;7.15;;;;;;;9.89;72.33;101985.28;4997212;28;20041;-66
2023/05/18 03:58:43;;;;;;;20.40;6.25;;;;;;;10.06;72.07;101979.44;4997206;28;20058;-67
2023/05/18 04:01:10;;;;;;;14.50;5.38;;;;;;;10.25;71.72;101983.31;5013285;28;20421;-67
2023/05/18 04:03:39;;;;;;;17.17;6.20;;;;;;;10.51;70.91;101978.50;5013280;28;20062;-67
2023/05/18 04:06:09;;;;;;;19.38;6.70;;;;;;;10.40;70.34;101982.41;5013194;28;20046;-67
2023/05/18 04:08:36;;;;;;;15.00;6.32;;;;;;;10.25;70.96;101988.81;5012871;28;20065;-66
2023/05/18 04:11:04;;;;;;;19.60;6.72;;;;;;;10.09;71.68;101995.47;5014578;28;20056;-67
2023/05/18 04:13:33;;;;;;;16.30;6.10;;;;;;;10.08;71.98;101988.25;4996063;28;20065;-67
2023/05/18 04:16:02;;;;;;;15.88;6.78;;;;;;;10.27;71.28;101999.56;5013766;28;20050;-68
2023/05/18 04:18:31;;;;;;;17.10;6.50;;;;;;;10.08;72.10;102002.03;5014513;28;20053;-67
2023/05/18 04:20:59;;;;;;;20.45;6.55;;;;;;;10.01;72.22;102007.00;5014244;28;20061;-67
2023/05/18 04:23:27;;;;;;;21.58;6.40;;;;;;;9.90;72.59;102008.94;5014418;28;20378;-66
2023/05/18 04:25:55;;;;;;;20.85;7.30;;;;;;;9.85;72.39;102003.44;4996208;28;20050;-67
2023/05/18 04:28:22;;;;;;;20.40;6.70;;;;;;;10.05;71.85;102005.34;4996626;28;20046;-68
2023/05/18 04:30:50;;;;;;;17.85;7.13;;;;;;;10.23;71.12;102009.47;4998915;28;20069;-68
2023/05/18 04:33:19;;;;;;;19.23;7.43;;;;;;;9.99;72.16;102011.94;5012517;28;20080;-67
2023/05/18 04:35:47;;;;;;;18.85;6.88;;;;;;;10.09;71.50;102014.72;4995926;28;20061;-67
2023/05/18 04:38:15;;;;;;;19.88;7.43;;;;;;;10.12;71.59;102017.75;4996333;28;20056;-68
2023/05/18 04:40:43;;;;;;;20.85;6.90;;;;;;;10.05;71.31;102022.69;4993209;28;20066;-67
2023/05/18 04:43:12;;;;;;;17.92;7.25;;;;;;;10.02;71.75;102020.47;4985157;28;20042;-69
2023/05/18 04:45:39;;;;;;;19.38;7.60;;;;;;;9.92;71.78;102020.50;5016728;28;20058;-67
2023/05/18 04:48:07;;;;;;;18.13;7.35;;;;;;;9.87;72.41;102012.25;4979657;28;20053;-68
2023/05/18 04:50:35;;;;;;;20.23;7.85;;;;;;;9.89;72.04;102018.31;4995777;28;20049;-67
2023/05/18 04:53:06;;;;;;;19.52;8.10;;;;;;;9.56;73.20;102026.28;4992981;28;20058;-67
2023/05/18 04:55:33;;;;;;;;;;;;;;;9.57;73.97;102026.00;4977114;28;20061;-66
2023/05/18 04:58:12;;;;;;;30.80;8.02;;;;;;;9.80;73.09;102030.97;4962673;28;19943;-68
2023/05/18 05:00:59;;;;;;;22.10;8.10;;;;;;;10.06;72.07;102021.56;4993601;28;20077;-67
2023/05/18 05:03:27;;;;;;;18.58;7.07;;;;;;;10.05;71.57;102022.69;4977181;28;20046;-67
2023/05/18 05:05:55;;;;;;;22.20;7.40;;;;;;;10.23;70.15;102020.47;4975861;28;20058;-68
2023/05/18 05:08:23;;;;;;;24.75;7.60;;;;;;;9.94;71.52;102025.72;5002754;28;20061;-66
2023/05/18 05:10:51;;;;;;;18.30;7.13;;;;;;;10.23;70.63;102020.47;4995724;28;20064;-67
2023/05/18 05:13:19;;;;;;;18.30;7.55;;;;;;;10.17;70.06;102025.16;4999328;28;20062;-67
2023/05/18 05:15:46;;;;;;;22.65;8.35;;;;;;;10.11;70.73;102026.28;4995680;28;20461;-66
2023/05/18 05:18:14;;;;;;;19.45;8.43;;;;;;;9.92;71.89;102028.75;5013219;28;20057;-66
2023/05/18 05:20:41;;;;;;;19.35;8.30;;;;;;;9.87;71.40;102022.44;5010490;28;20048;-66
2023/05/18 05:23:08;;;;;;;18.50;7.55;;;;;;;10.04;70.90;102022.97;5012620;28;20057;-67
2023/05/18 05:25:38;;;;;;;;;;;;;;;9.90;71.46;102028.19;4989454;28;20524;-67
2023/05/18 05:28:06;;;;;;;21.08;8.13;;;;;;;9.99;71.23;102028.47;5005778;28;19929;-67
2023/05/18 05:30:33;;;;;;;17.90;8.05;;;;;;;10.06;71.33;102032.59;4995732;28;20054;-67
2023/05/18 05:33:00;;;;;;;20.75;8.70;;;;;;;10.05;71.47;102030.94;4979739;28;20053;-68
2023/05/18 05:35:28;;;;;;;23.33;8.70;;;;;;;10.32;70.64;102032.56;4995622;28;20444;-67
2023/05/18 05:37:59;;;;;;;24.98;7.97;;;;;;;10.58;69.65;102037.72;4995308;28;20421;-66
2023/05/18 05:40:27;;;;;;;21.75;8.13;;;;;;;10.49;69.49;102039.41;5028227;28;20050;-68
2023/05/18 05:42:54;;;;;;;22.05;8.57;;;;;;;10.10;70.87;102036.47;5012332;28;20053;-67
2023/05/18 05:45:22;;;;;;;22.05;8.40;;;;;;;10.14;70.33;102056.03;5002327;28;20050;-67
2023/05/18 05:47:54;;;;;;;20.13;8.55;;;;;;;10.19;70.74;102043.06;5012151;28;20045;-66
2023/05/18 05:50:23;;;;;;;18.67;8.60;;;;;;;10.29;69.99;102052.41;5015578;28;20069;-67
2023/05/18 05:52:52;;;;;;;27.77;8.70;;;;;;;10.23;69.85;102048.84;4995951;28;20528;-66
2023/05/18 05:55:21;;;;;;;18.13;8.48;;;;;;;10.16;70.15;102049.13;5014200;28;20054;-67
2023/05/18 05:57:50;;;;;;;23.05;8.65;;;;;;;10.22;69.35;102047.19;4998788;28;20046;-68
2023/05/18 06:00:18;;;;;;;22.20;8.80;;;;;;;10.44;69.81;102044.09;5015535;28;20069;-67
2023/05/18 06:02:52;;;;;;;23.33;8.43;;;;;;;10.49;68.87;102052.34;5015194;28;20057;-67
2023/05/18 06:05:41;;;;;;;23.17;7.55;;;;;;;10.58;68.15;102048.75;5014883;28;20061;-67
2023/05/18 06:08:09;;;;;;;22.10;8.23;;;;;;;10.58;67.97;102043.25;4982872;28;20057;-67
2023/05/18 06:10:38;;;;;;;19.95;8.18;;;;;;;10.48;68.40;102043.25;5015522;28;20059;-67
2023/05/18 06:13:06;;;;;;;21.58;7.75;;;;;;;10.53;68.50;102050.69;4997847;28;20065;-68
2023/05/18 06:15:40;;;;;;;22.45;8.05;;;;;;;10.41;68.91;102045.47;5016408;28;20546;-67
2023/05/18 06:18:08;;;;;;;21.67;8.25;;;;;;;10.57;68.13;102051.75;5014936;28;20045;-67
2023/05/18 06:20:38;;;;;;;16.27;8.20;;;;;;;10.64;67.82;102049.53;4997772;28;20053;-67
2023/05/18 06:23:05;;;;;;;20.98;8.23;;;;;;;11.08;66.58;102044.91;5002285;28;20037;-66
2023/05/18 06:26:05;;;;;;;25.92;8.07;;;;;;;11.10;65.31;102040.78;4979271;28;20050;-66
2023/05/18 06:28:46;;;;;;;18.55;8.65;;;;;;;10.96;66.25;102049.94;5017251;28;20061;-67
2023/05/18 06:31:27;;;;;;;23.58;8.32;;;;;;;10.93;66.26;102045.81;5013333;28;20086;-67
2023/05/18 06:34:01;;;;;;;16.70;8.13;;;;;;;11.12;65.72;102052.31;5012700;28;20054;-67
2023/05/18 06:36:30;;;;;;;21.95;8.20;;;;;;;11.15;65.30;102045.44;4997884;28;20042;-64
2023/05/18 06:38:58;;;;;;;26.30;8.55;;;;;;;10.95;65.90;102048.28;4998366;28;20046;-64
2023/05/18 06:41:28;;;;;;;34.15;9.55;;;;;;;11.21;65.66;102044.28;5015207;28;20053;-64
2023/05/18 06:43:59;;;;;;;23.23;8.75;;;;;;;11.43;64.39;102052.13;5006682;28;20046;-64
2023/05/18 06:46:34;;;;;;;18.70;7.88;;;;;;;11.42;64.28;102050.50;5015494;28;20050;-64
2023/05/18 06:49:06;;;;;;;21.20;7.63;;;;;;;11.74;63.56;102045.31;4996111;28;20053;-64
2023/05/18 06:51:34;;;;;;;20.77;8.18;;;;;;;11.65;62.63;102049.78;5003141;28;20054;-63
2023/05/18 06:54:01;;;;;;;19.45;7.88;;;;;;;11.38;63.62;102041.97;4998249;28;20053;-63
2023/05/18 06:56:28;;;;;;;17.08;7.88;;;;;;;11.53;63.68;102044.63;4982124;28;20053;-63
2023/05/18 06:58:56;;;;;;;23.73;8.43;;;;;;;11.68;62.37;102041.75;4998050;28;20156;-64
2023/05/18 07:01:26;;;;;;;21.42;7.78;;;;;;;11.66;62.46;102037.66;4996960;28;20058;-64
2023/05/18 07:03:57;;;;;;;24.15;7.50;;;;;;;11.64;62.47;102043.47;4997692;28;20061;-64
2023/05/18 07:06:26;;;;;;;22.15;7.68;;;;;;;11.56;63.15;102037.72;5015030;28;20054;-64
2023/05/18 07:08:53;;;;;;;22.63;7.60;;;;;;;11.93;62.57;102046.22;5015567;28;20476;-64
2023/05/18 07:11:21;;;;;;;20.25;8.35;;;;;;;11.52;62.85;102039.38;4991831;28;20072;-64
2023/05/18 07:13:49;;;;;;;23.60;8.65;;;;;;;11.63;63.95;102039.00;5008165;28;20057;-64
2023/05/18 07:16:16;;;;;;;21.08;7.68;;;;;;;11.73;61.46;102029.88;4995654;28;20045;-63
2023/05/18 07:18:44;;;;;;;17.23;7.53;;;;;;;11.87;61.30;102039.13;5013492;28;20390;-64
2023/05/18 07:21:11;;;;;;;22.92;8.13;;;;;;;12.17;60.33;102041.56;5013858;28;20046;-64
2023/05/18 07:23:39;;;;;;;32.00;8.30;;;;;;;12.26;59.25;102042.59;5004766;28;20407;-62
2023/05/18 07:26:08;;;;;;;22.15;7.93;;;;;;;12.14;59.01;102045.75;5022403;28;20540;-63
2023/05/18 07:28:37;;;;;;;19.77;7.47;;;;;;;12.27;59.89;102038.72;5017012;28;20042;-65
2023/05/18 07:31:05;;;;;;;22.98;7.82;;;;;;;12.34;58.16;102037.25;5025992;28;20057;-63
2023/05/18 07:33:32;;;;;;;25.48;7.40;;;;;;;12.39;58.82;102036.38;5011244;28;20053;-63
2023/05/18 07:36:00;;;;;;;20.00;8.20;;;;;;;12.67;57.84;102029.13;4997637;28;20050;-64
2023/05/18 07:38:28;;;;;;;21.90;7.40;;;;;;;13.06;56.99;102026.97;5012110;28;20041;-64
2023/05/18 07:40:58;;;;;;;22.83;7.55;;;;;;;13.00;55.94;102026.22;4996364;28;20042;-63
2023/05/18 07:43:25;;;;;;;22.15;7.13;;;;;;;13.23;56.29;102021.75;4997647;28;20062;-62
2023/05/18 07:45:53;;;;;;;23.77;7.00;;;;;;;13.77;55.80;102029.47;4999343;28;20049;-62
2023/05/18 07:48:20;;;;;;;16.35;6.55;;;;;;;13.87;54.35;102027.34;4988610;28;20050;-61
2023/05/18 07:50:47;;;;;;;24.50;7.38;;;;;;;13.51;54.36;102031.84;4998858;28;20060;-63
2023/05/18 07:53:15;;;;;;;19.95;7.20;;;;;;;13.85;54.20;102026.00;5020372;28;20050;-64
2023/05/18 07:55:42;;;;;;;21.15;6.70;;;;;;;13.92;54.05;102012.56;5010921;28;20518;-62
2023/05/18 07:58:09;;;;;;;19.90;6.63;;;;;;;14.32;53.56;102021.00;5015290;28;20049;-62
2023/05/18 08:00:37;;;;;;;19.17;7.03;;;;;;;14.73;51.37;102020.19;4996591;28;20046;-63
2023/05/18 08:03:05;;;;;;;19.55;6.60;;;;;;;14.71;51.21;102017.72;5005754;28;20058;-62
2023/05/18 08:05:33;;;;;;;20.52;6.75;;;;;;;14.86;50.82;102013.78;5021899;28;20406;-63
2023/05/18 08:08:01;;;;;;;24.80;7.43;;;;;;;14.55;51.11;102016.38;5012338;28;20665;-61
2023/05/18 08:10:32;;;;;;;17.42;6.10;;;;;;;14.88;50.53;102005.97;5011972;28;20057;-61
2023/05/18 08:13:00;;;;;;;20.10;6.10;;;;;;;15.04;48.78;102007.28;5012369;28;20519;-63
2023/05/18 08:15:28;;;;;;;24.05;5.93;;;;;;;15.00;48.54;102012.63;5008604;28;20053;-62
2023/05/18 08:17:57;;;;;;;19.08;5.85;;;;;;;14.72;47.76;102010.19;5005969;28;20068;-63
2023/05/18 08:20:29;;;;;;;16.92;5.60;;;;;;;14.60;48.06;102003.25;5009085;28;20050;-63
2023/05/18 08:22:56;;;;;;;18.88;5.68;;;;;;;14.14;47.28;102009.97;5006297;28;20057;-62
2023/05/18 08:25:24;;;;;;;14.57;5.63;;;;;;;14.15;47.47;102004.13;5010487;28;20049;-62
2023/05/18 08:27:52;;;;;;;18.30;5.38;;;;;;;14.10;48.44;102000.63;4990850;28;20050;-64
2023/05/18 08:30:20;;;;;;;21.95;6.07;;;;;;;14.07;48.07;102001.25;5024345;28;20050;-64
2023/05/18 08:32:47;;;;;;;14.60;5.20;;;;;;;14.17;47.87;102009.34;5012585;28;20058;-63
2023/05/18 08:35:15;;;;;;;19.80;5.78;;;;;;;13.80;49.39;102006.72;5026916;28;20050;-63
2023/05/18 08:37:42;;;;;;;13.30;5.57;;;;;;;13.81;50.50;102003.63;5010466;28;20045;-62
2023/05/18 08:40:11;;;;;;;28.08;5.55;;;;;;;14.22;50.08;102007.31;4999657;28;20050;-62
2023/05/18 08:42:47;;;;;;;16.02;5.65;;;;;;;14.30;49.22;101998.31;5011263;28;20065;-63
2023/05/18 08:45:25;;;;;;;21.45;6.03;;;;;;;14.34;49.94;101999.34;4975674;28;20050;-62
2023/05/18 08:47:55;;;;;;;19.05;5.50;;;;;;;14.48;48.50;102002.09;5005286;28;20133;-62
2023/05/18 08:50:23;;;;;;;15.63;5.18;;;;;;;14.39;48.56;101988.16;5009355;28;20062;-62
2023/05/18 08:52:54;;;;;;;19.08;5.70;;;;;;;14.62;48.05;101992.66;5010358;28;20050;-63
2023/05/18 08:55:22;;;;;;;20.20;5.97;;;;;;;14.47;48.48;101997.72;5009510;28;20057;-63
2023/05/18 08:57:54;;;;;;;18.35;5.05;;;;;;;14.46;48.37;101991.34;5009104;28;20056;-62
2023/05/18 09:00:23;;;;;;;17.05;5.38;;;;;;;14.76;46.94;102000.97;4988375;28;20049;-62
2023/05/18 09:02:51;;;;;;;17.55;5.63;;;;;;;14.30;47.09;101998.31;5018692;28;20057;-62
2023/05/18 09:05:20;;;;;;;18.63;4.93;;;;;;;14.48;48.22;101994.63;5013285;28;20048;-63
2023/05/18 09:07:49;;;;;;;15.70;5.35;;;;;;;14.51;46.14;101999.53;4990450;28;20177;-62
2023/05/18 09:10:17;;;;;;;21.97;5.70;;;;;;;14.41;46.37;101996.97;5016026;28;20034;-62
2023/05/18 09:12:46;;;;;;;18.67;5.10;;;;;;;14.45;47.06;101986.91;5022147;28;20054;-63
2023/05/18 09:15:14;;;;;;;19.35;5.85;;;;;;;14.57;46.35;101997.50;5015974;28;20058;-61
2023/05/18 09:17:42;;;;;;;19.40;5.97;;;;;;;14.50;45.76;101995.16;4999222;28;20051;-63
2023/05/18 09:20:11;;;;;;;19.52;5.85;;;;;;;14.29;47.26;102001.38;5011033;28;20042;-62
2023/05/18 09:22:42;;;;;;;22.67;5.93;;;;;;;14.35;47.28;101995.44;5017670;28;20054;-62
2023/05/18 09:25:09;;;;;;;20.75;6.25;;;;;;;14.72;46.53;101988.84;5009116;28;20441;-62
2023/05/18 09:27:37;;;;;;;20.63;5.85;;;;;;;14.45;46.40;101986.09;5022717;28;20073;-62
2023/05/18 09:30:09;;;;;;;21.13;5.63;;;;;;;14.65;46.90;101986.50;5006460;28;20065;-62
2023/05/18 09:32:37;;;;;;;17.27;5.32;;;;;;;14.82;45.66;101985.03;5028521;28;20055;-62
2023/05/18 09:35:05;;;;;;;20.00;5.72;;;;;;;14.87;46.23;101984.91;5018421;28;20054;-62
2023/05/18 09:37:33;;;;;;;17.45;5.60;;;;;;;14.63;46.43;101994.28;5026011;28;20049;-63
2023/05/18 09:40:06;;;;;;;17.00;6.30;;;;;;;14.69;45.78;101995.00;5027236;28;20072;-62
2023/05/18 09:42:38;;;;;;;21.65;6.13;;;;;;;14.55;45.91;101991.44;5018224;28;20076;-62
2023/05/18 09:45:17;;;;;;;17.60;5.78;;;;;;;14.87;45.68;101996.03;5023614;28;20065;-62
2023/05/18 09:47:45;;;;;;;20.17;6.28;;;;;;;14.93;45.83;101981.72;5018736;28;20050;-63
2023/05/18 09:50:13;;;;;;;16.88;6.10;;;;;;;15.06;45.25;101993.91;5003755;28;20056;-61
2023/05/18 09:52:44;;;;;;;18.10;6.13;;;;;;;14.46;46.13;101993.28;5017660;28;20048;-61
2023/05/18 09:55:17;;;;;;;19.65;6.65;;;;;;;14.13;47.53;101991.69;5021407;28;20508;-61
2023/05/18 09:57:46;;;;;;;21.98;7.03;;;;;;;14.34;46.99;101979.09;5014715;28;20057;-62
2023/05/18 10:00:15;;;;;;;24.17;7.47;;;;;;;14.70;47.79;101999.41;5026773;28;20046;-62
2023/05/18 10:02:48;;;;;;;18.75;7.18;;;;;;;14.70;47.73;101977.22;5023898;28;20037;-61
2023/05/18 10:05:26;;;;;;;24.75;6.53;;;;;;;14.68;48.40;101984.22;5019386;28;20046;-62
2023/05/18 10:07:54;;;;;;;19.02;7.35;;;;;;;14.64;48.75;101986.81;4998771;28;20054;-62
2023/05/18 10:10:25;;;;;;;24.83;7.55;;;;;;;14.87;48.78;101966.31;5017317;28;20417;-63
2023/05/18 10:12:54;;;;;;;21.42;6.38;;;;;;;14.71;48.26;101969.75;5023287;28;20050;-62
2023/05/18 10:15:23;;;;;;;19.70;6.10;;;;;;;15.17;48.34;101968.38;5020881;28;20086;-65
2023/05/18 10:17:54;;;;;;;19.30;7.25;;;;;;;15.33;47.16;101975.22;5001135;28;20054;-63
2023/05/18 10:20:23;;;;;;;18.27;6.35;;;;;;;15.21;45.44;101974.94;5018307;28;20060;-63
2023/05/18 10:22:51;;;;;;;25.98;6.63;;;;;;;15.10;44.13;101976.31;5002485;28;20073;-64
2023/05/18 10:25:21;;;;;;;20.27;6.43;;;;;;;15.14;44.48;101976.50;5019649;28;20124;-63
2023/05/18 10:27:50;;;;;;;19.63;6.10;;;;;;;15.06;44.55;101974.50;5007911;28;20058;-65
2023/05/18 10:30:18;;;;;;;21.63;6.80;;;;;;;15.23;45.38;101956.03;5025615;28;20046;-63
2023/05/18 10:32:47;;;;;;;18.42;6.47;;;;;;;15.57;45.22;101961.03;5019537;28;20061;-63
2023/05/18 10:35:15;;;;;;;17.52;6.35;;;;;;;15.55;45.26;101953.03;5012875;28;20053;-64
2023/05/18 10:37:47;;;;;;;22.92;7.43;;;;;;;15.04;45.65;101947.06;5010786;28;20050;-63
2023/05/18 10:40:16;;;;;;;16.25;6.32;;;;;;;15.00;46.25;101948.81;4996284;28;20049;-64
2023/05/18 10:42:44;;;;;;;16.17;6.00;;;;;;;15.67;44.52;101941.34;4998601;28;20529;-64
2023/05/18 10:45:14;;;;;;;15.60;5.60;;;;;;;15.57;41.50;101934.09;5012341;28;20077;-63
2023/05/18 10:47:42;;;;;;;20.85;6.05;;;;;;;16.01;41.36;101949.03;5016197;28;20045;-63
2023/05/18 10:50:10;;;;;;;20.77;5.72;;;;;;;15.93;40.49;101944.25;4993400;28;20054;-64
2023/05/18 10:52:39;;;;;;;18.35;5.88;;;;;;;15.97;39.22;101945.25;4993611;28;20053;-64
2023/05/18 10:55:07;;;;;;;17.92;5.70;;;;;;;15.91;39.51;101943.75;5005871;28;20050;-63
2023/05/18 10:57:45;;;;;;;17.63;6.13;;;;;;;15.96;39.17;101936.09;5014487;28;20045;-63
2023/05/18 11:00:13;;;;;;;14.43;5.35;;;;;;;16.00;39.55;101936.28;5008310;28;20494;-63
2023/05/18 11:02:41;;;;;;;21.20;5.93;;;;;;;16.27;39.55;101938.81;4977319;28;20034;-62
2023/05/18 11:05:10;;;;;;;19.95;6.00;;;;;;;15.92;38.82;101932.31;5008855;28;20077;-64
2023/05/18 11:07:37;;;;;;;16.92;5.53;;;;;;;16.40;39.01;101922.03;5016344;28;20058;-66
2023/05/18 11:10:09;;;;;;;16.42;5.88;;;;;;;16.01;39.68;101935.97;5001894;28;20061;-65
2023/05/18 11:12:37;;;;;;;16.27;5.45;;;;;;;16.27;38.59;101936.88;5018979;28;20064;-63
2023/05/18 11:15:07;;;;;;;25.92;6.95;;;;;;;15.98;38.70;101933.81;5023697;28;20049;-64
2023/05/18 11:17:35;;;;;;;16.60;5.80;;;;;;;15.87;38.84;101942.75;5010687;28;20056;-64
2023/05/18 11:20:06;;;;;;;16.88;5.45;;;;;;;16.30;38.60;101938.22;5014236;28;20506;-63
2023/05/18 11:22:46;;;;;;;17.17;5.60;;;;;;;16.43;37.62;101932.53;5006773;28;20060;-63
2023/05/18 11:25:23;;;;;;;;;;;;;;;16.54;37.06;101933.91;4992109;28;20084;-65
2023/05/18 11:27:56;;;;;;;17.15;5.82;;;;;;;16.04;37.87;101949.19;5006113;28;19936;-63
2023/05/18 11:30:27;;;;;;;17.15;6.28;;;;;;;15.53;39.18;101935.84;4992330;28;20056;-64